Time;durP1;ratioP1;P1;durP2;ratioP2;P2;SDS_P1;SDS_P2;PMS_P1;PMS_P2;Temp;Humidity;BMP_temperature;BMP_pressure;BME280_temperature;BME280_humidity;BME280_pressure;Samples;Min_cycle;Max_cycle;Signal;HPM_P1;HPM_P2
2022/05/16 00:01:31;;;;;;;8.33;6.80;;;14.30;99.90;15.00;97045.00;;;;5032431;28;20578;-66
2022/05/16 00:04:20;;;;;;;8.80;6.10;;;14.30;99.90;14.80;97047.00;;;;5032953;28;20229;-65
2022/05/16 00:07:11;;;;;;;7.40;6.70;;;14.20;99.90;14.70;97046.00;;;;5033272;28;20567;-65
2022/05/16 00:10:00;;;;;;;11.30;7.80;;;14.20;99.90;14.60;97053.00;;;;5032187;28;20668;-66
2022/05/16 00:12:49;;;;;;;6.37;5.87;;;14.10;99.90;14.50;97045.00;;;;5031737;28;20212;-66
2022/05/16 00:15:38;;;;;;;8.73;7.40;;;14.00;99.90;14.50;97048.00;;;;5034039;28;20201;-66
2022/05/16 00:18:27;;;;;;;8.70;7.20;;;13.90;99.90;14.30;97042.00;;;;5038518;28;20677;-66
2022/05/16 00:21:16;;;;;;;11.37;7.70;;;13.90;99.90;14.10;97047.00;;;;5032647;28;20201;-66
2022/05/16 00:24:07;;;;;;;8.90;7.77;;;13.80;99.90;14.20;97040.00;;;;5024901;28;20235;-66
2022/05/16 00:26:58;;;;;;;8.77;6.93;;;13.70;99.90;14.30;97034.00;;;;5032012;28;20807;-67
2022/05/16 00:29:47;;;;;;;11.77;7.77;;;13.70;99.90;14.40;97032.00;;;;5035515;28;20197;-66
2022/05/16 00:32:36;;;;;;;7.73;7.03;;;13.70;99.90;14.30;97028.00;;;;5038337;28;20228;-66
2022/05/16 00:35:26;;;;;;;13.07;7.83;;;13.60;99.90;14.50;97024.00;;;;5031954;28;20219;-66
2022/05/16 00:38:14;;;;;;;10.43;6.37;;;13.70;99.90;14.40;97025.00;;;;5034625;28;20217;-67
2022/05/16 00:41:07;;;;;;;8.37;7.57;;;13.60;99.90;14.30;97021.00;;;;5047723;28;20216;-65
2022/05/16 00:43:59;;;;;;;8.57;7.67;;;13.70;99.90;13.90;97020.00;;;;5033929;28;20596;-66
2022/05/16 00:46:48;;;;;;;7.87;7.07;;;13.60;99.90;14.00;97016.00;;;;5023823;28;20661;-66
2022/05/16 00:49:42;;;;;;;8.90;8.07;;;13.50;99.90;14.10;97007.00;;;;5027840;28;20205;-67
2022/05/16 00:52:36;;;;;;;9.00;7.93;;;13.50;99.90;14.20;97016.00;;;;5030446;28;20221;-67
2022/05/16 00:55:30;;;;;;;8.40;7.60;;;13.40;99.90;14.00;97008.00;;;;5038428;28;20216;-66
2022/05/16 00:58:20;;;;;;;8.10;7.30;;;13.40;99.90;13.80;97007.00;;;;5033393;28;20596;-66
2022/05/16 01:04:47;;;;;;;9.20;7.73;;;13.40;99.90;13.80;97012.00;;;;5047652;28;20223;-65
2022/05/16 01:07:29;;;;;;;9.13;7.90;;;13.40;99.90;14.20;97008.00;;;;5029948;28;20205;-66
2022/05/16 01:10:22;;;;;;;8.97;7.60;;;13.30;99.90;13.90;97007.00;;;;5035570;28;20232;-66
2022/05/16 01:13:12;;;;;;;8.70;7.60;;;13.30;99.90;13.70;97005.00;;;;5033693;28;20603;-66
2022/05/16 01:16:05;;;;;;;8.47;7.70;;;13.30;99.90;13.20;96998.00;;;;5033274;28;20202;-65
2022/05/16 01:18:54;;;;;;;8.67;7.87;;;13.20;99.90;13.40;97003.00;;;;5031113;28;20204;-66
2022/05/16 01:21:43;;;;;;;9.40;8.50;;;13.10;99.90;13.50;97006.00;;;;5041353;28;20203;-66
2022/05/16 01:24:33;;;;;;;8.63;7.83;;;13.10;99.90;13.80;97003.00;;;;5038174;28;20228;-66
2022/05/16 01:27:22;;;;;;;8.93;7.33;;;13.00;99.90;14.00;97005.00;;;;5023859;28;20201;-66
2022/05/16 01:30:14;;;;;;;9.77;8.10;;;13.10;99.90;13.90;97007.00;;;;5031582;28;20220;-66
2022/05/16 01:33:02;;;;;;;8.70;7.33;;;13.10;99.90;13.80;97011.00;;;;5036668;28;20235;-66
2022/05/16 01:35:52;;;;;;;9.00;8.13;;;13.10;99.90;13.80;97006.00;;;;5037903;28;20672;-66
2022/05/16 01:38:41;;;;;;;9.37;7.97;;;13.10;99.90;13.70;96981.00;;;;5032555;28;20197;-65
2022/05/16 01:41:32;;;;;;;9.43;8.37;;;13.10;99.90;13.80;96991.00;;;;5033646;28;20606;-66
2022/05/16 01:44:21;;;;;;;8.67;7.87;;;13.00;99.90;13.80;96988.00;;;;5035794;28;20224;-66
2022/05/16 01:47:10;;;;;;;9.00;8.00;;;13.10;99.90;13.60;96984.00;;;;5032518;28;20205;-65
2022/05/16 01:49:58;;;;;;;11.53;8.43;;;13.00;99.90;13.40;96991.00;;;;5028179;28;20197;-66
2022/05/16 01:52:47;;;;;;;9.70;8.50;;;12.90;99.90;13.30;96984.00;;;;5032791;28;20219;-66
2022/05/16 01:55:36;;;;;;;10.37;8.53;;;12.80;99.90;13.30;96986.00;;;;5036893;28;20201;-66
2022/05/16 01:58:27;;;;;;;11.77;7.70;;;12.80;99.90;13.20;96985.00;;;;5035661;28;20204;-66
2022/05/16 02:01:16;;;;;;;7.73;7.03;;;12.70;99.90;13.10;96975.00;;;;5034350;28;20215;-66
2022/05/16 02:04:05;;;;;;;9.60;7.33;;;12.70;99.90;13.10;96983.00;;;;5043407;28;20247;-65
2022/05/16 02:06:54;;;;;;;9.13;8.00;;;12.60;99.90;13.40;96971.00;;;;5032353;28;20723;-65
2022/05/16 02:09:43;;;;;;;12.43;8.50;;;12.70;99.90;13.30;96974.00;;;;5027973;28;20209;-66
2022/05/16 02:12:32;;;;;;;10.47;9.07;;;12.70;99.90;13.20;96973.00;;;;5030810;28;20244;-66
2022/05/16 02:15:26;;;;;;;11.13;9.87;;;12.60;99.90;13.10;96969.00;;;;5036639;28;20205;-67
2022/05/16 02:18:15;;;;;;;15.27;7.97;;;12.60;99.90;12.90;96969.00;;;;5028096;28;20213;-66
2022/05/16 02:27:28;;;;;;;10.60;9.07;;;12.50;99.90;12.90;96973.00;;;;4923631;29;20201;-66
2022/05/16 02:30:20;;;;;;;10.47;8.43;;;12.40;99.90;12.90;96979.00;;;;5029635;28;20209;-66
2022/05/16 02:33:11;;;;;;;8.97;8.07;;;12.40;99.90;13.10;96975.00;;;;5030156;28;20315;-66
2022/05/16 02:36:00;;;;;;;10.27;8.37;;;12.40;99.90;13.00;96978.00;;;;5037482;28;20209;-66
2022/05/16 02:38:49;;;;;;;9.47;8.47;;;12.40;99.90;13.20;96972.00;;;;5030568;28;20201;-66
2022/05/16 02:41:37;;;;;;;9.07;8.17;;;12.40;99.90;13.40;96979.00;;;;5034807;28;20211;-66
2022/05/16 02:44:26;;;;;;;9.40;8.43;;;12.40;99.90;13.20;96983.00;;;;5033982;28;20220;-66
2022/05/16 02:47:18;;;;;;;8.63;7.90;;;12.40;99.90;12.90;96975.00;;;;5031736;28;20220;-66
2022/05/16 02:50:10;;;;;;;11.07;9.10;;;12.40;99.90;12.80;96975.00;;;;5030755;28;20197;-66
2022/05/16 02:52:59;;;;;;;8.50;7.70;;;12.30;99.90;12.70;96978.00;;;;5033231;28;20233;-66
2022/05/16 02:55:47;;;;;;;10.63;9.43;;;12.30;99.90;12.90;96980.00;;;;5036495;28;20201;-65
2022/05/16 02:58:36;;;;;;;9.03;8.13;;;12.30;99.90;12.80;96985.00;;;;5030976;28;20205;-66
2022/05/16 03:01:25;;;;;;;9.30;8.40;;;12.30;99.90;12.80;96989.00;;;;5035708;28;20565;-65
2022/05/16 03:04:14;;;;;;;9.80;8.30;;;12.30;99.90;12.70;96973.00;;;;5032012;28;20247;-66
2022/05/16 03:07:06;;;;;;;7.90;7.20;;;12.20;99.90;13.00;96976.00;;;;5030664;28;20193;-66
2022/05/16 03:09:54;;;;;;;10.57;8.13;;;12.20;99.90;13.10;96977.00;;;;5026491;28;20606;-65
2022/05/16 03:12:45;;;;;;;12.13;8.40;;;12.30;99.90;13.10;96974.00;;;;5029748;28;20228;-66
2022/05/16 03:15:34;;;;;;;11.60;8.10;;;12.30;99.90;12.90;96972.00;;;;5025079;28;20216;-66
2022/05/16 03:18:24;;;;;;;8.43;7.70;;;12.30;99.90;12.80;96985.00;;;;5021897;28;20208;-66
2022/05/16 03:21:13;;;;;;;9.50;7.23;;;12.30;99.90;12.80;96987.00;;;;5028752;28;20361;-66
2022/05/16 03:24:03;;;;;;;8.67;7.87;;;12.10;99.90;12.90;96976.00;;;;5046459;28;20228;-65
2022/05/16 03:26:52;;;;;;;11.17;9.17;;;12.20;99.90;13.10;96976.00;;;;5030726;28;20320;-66
2022/05/16 03:29:41;;;;;;;9.80;7.80;;;12.30;99.90;13.20;96975.00;;;;5034026;28;20197;-66
2022/05/16 03:32:30;;;;;;;12.83;8.73;;;12.30;99.90;13.00;96980.00;;;;5031489;28;20229;-65
2022/05/16 03:35:20;;;;;;;8.60;7.80;;;12.30;99.90;12.30;96974.00;;;;5034424;28;20209;-66
2022/05/16 03:40:41;;;;;;;10.77;7.50;;;12.20;99.90;12.20;96979.00;;;;5034033;28;20202;-66
2022/05/16 03:41:18;;;;;;;9.13;8.13;;;12.00;99.90;12.70;96979.00;;;;5035261;28;20700;-64
2022/05/16 03:44:07;;;;;;;8.70;7.77;;;12.00;99.90;12.90;96984.00;;;;5035649;28;20602;-66
2022/05/16 03:46:56;;;;;;;8.27;7.17;;;12.00;99.90;12.80;96999.00;;;;5024356;28;20212;-65
2022/05/16 03:49:45;;;;;;;10.27;7.23;;;12.00;99.90;12.60;96984.00;;;;5032739;28;20212;-66
2022/05/16 03:52:34;;;;;;;9.13;7.87;;;12.00;99.90;12.60;96990.00;;;;5037070;28;20220;-66
2022/05/16 03:55:22;;;;;;;8.37;7.43;;;12.00;99.90;12.60;96992.00;;;;5038772;28;20668;-66
2022/05/16 03:58:13;;;;;;;9.77;7.27;;;12.00;99.90;12.80;96987.00;;;;5032584;28;20695;-66
2022/05/16 04:01:02;;;;;;;9.20;8.10;;;12.00;99.90;12.70;96985.00;;;;5031727;28;20205;-66
2022/05/16 04:03:51;;;;;;;9.23;8.33;;;12.00;99.90;12.70;96988.00;;;;5053830;22;20243;-68
2022/05/16 04:06:40;;;;;;;10.80;9.67;;;12.00;99.90;12.80;96990.00;;;;5046934;28;20212;-68
2022/05/16 04:09:28;;;;;;;8.67;7.77;;;12.10;99.90;12.90;96996.00;;;;5051322;28;20200;-68
2022/05/16 04:12:17;;;;;;;13.17;7.93;;;12.10;99.90;12.80;96993.00;;;;5051955;28;20212;-68
2022/05/16 04:15:10;;;;;;;8.77;7.97;;;12.10;99.90;12.80;96990.00;;;;5051655;28;20251;-68
2022/05/16 04:17:59;;;;;;;10.93;8.33;;;12.10;99.90;12.90;96989.00;;;;5041807;28;20606;-68
2022/05/16 04:20:48;;;;;;;10.83;8.50;;;12.10;99.90;12.80;96999.00;;;;5047594;28;20200;-68
2022/05/16 04:23:37;;;;;;;9.20;8.10;;;12.10;99.90;12.90;96993.00;;;;5051094;28;20231;-68
2022/05/16 04:26:26;;;;;;;8.93;8.03;;;12.10;99.90;12.70;96993.00;;;;5055253;28;20201;-68
2022/05/16 04:29:14;;;;;;;9.97;9.07;;;12.20;99.90;12.80;96998.00;;;;5051119;28;20205;-68
2022/05/16 04:32:06;;;;;;;9.30;8.40;;;12.20;99.90;13.10;96998.00;;;;5052498;28;20211;-68
2022/05/16 04:34:55;;;;;;;9.17;8.27;;;12.30;99.90;13.30;97000.00;;;;5050239;28;20225;-68
2022/05/16 04:37:44;;;;;;;8.80;7.90;;;12.40;99.90;13.50;97011.00;;;;5050961;28;20197;-68
2022/05/16 04:40:34;;;;;;;9.37;8.37;;;12.50;99.90;13.70;96992.00;;;;5049269;28;20213;-68
2022/05/16 04:43:22;;;;;;;9.13;8.33;;;12.60;99.90;13.80;97002.00;;;;5049408;28;20228;-68
2022/05/16 04:46:10;;;;;;;8.63;7.80;;;12.70;99.90;13.80;97000.00;;;;5046707;28;20259;-68
2022/05/16 04:49:02;;;;;;;10.57;9.23;;;12.80;99.90;14.00;96996.00;;;;5052762;28;20209;-68
2022/05/16 04:51:51;;;;;;;9.70;8.50;;;13.00;99.90;14.00;96996.00;;;;5048378;28;20216;-68
2022/05/16 04:54:40;;;;;;;7.73;7.03;;;13.10;99.90;14.00;96998.00;;;;5050003;28;20228;-68
2022/05/16 04:57:29;;;;;;;8.73;7.83;;;13.20;99.90;14.00;96991.00;;;;5049306;28;20204;-68
2022/05/16 05:00:21;;;;;;;9.60;8.67;;;13.20;99.90;14.20;96992.00;;;;5048707;28;20254;-68
2022/05/16 05:03:10;;;;;;;8.33;7.53;;;13.30;99.90;14.40;96997.00;;;;5050938;28;20224;-68
2022/05/16 05:06:00;;;;;;;11.37;8.47;;;13.40;99.90;14.50;97002.00;;;;5042455;28;20215;-68
2022/05/16 05:08:49;;;;;;;8.57;7.80;;;13.50;99.90;14.70;96997.00;;;;5043579;28;20694;-68
2022/05/16 05:14:44;;;;;;;8.47;7.67;;;13.80;99.90;15.00;97004.00;;;;5051134;28;20236;-68
2022/05/16 05:17:34;;;;;;;7.87;7.07;;;13.90;99.90;14.80;97001.00;;;;5050372;28;20213;-68
2022/05/16 05:20:23;;;;;;;8.60;6.90;;;14.00;99.90;14.70;97001.00;;;;5051247;28;20211;-68
2022/05/16 05:23:13;;;;;;;7.77;7.07;;;14.00;99.90;14.90;97002.00;;;;5045860;28;20215;-68
2022/05/16 05:26:02;;;;;;;9.17;8.00;;;14.10;99.90;15.00;97004.00;;;;5044176;28;20200;-68
2022/05/16 05:28:51;;;;;;;11.87;9.07;;;14.20;99.90;15.40;97001.00;;;;5046492;28;20300;-68
2022/05/16 05:31:41;;;;;;;8.50;7.70;;;14.40;99.90;15.30;97005.00;;;;5050029;28;20193;-68
2022/05/16 05:34:30;;;;;;;11.90;9.83;;;14.40;99.90;15.50;96996.00;;;;5048204;28;20231;-68
2022/05/16 05:37:19;;;;;;;9.53;7.27;;;14.50;99.90;15.90;96992.00;;;;5046689;28;20211;-68
2022/05/16 05:40:11;;;;;;;8.67;7.87;;;14.70;99.90;16.00;96986.00;;;;5048423;28;20211;-68
2022/05/16 05:43:04;;;;;;;11.13;9.20;;;14.80;99.90;16.20;97003.00;;;;5048127;28;20219;-68
2022/05/16 05:45:53;;;;;;;10.23;9.20;;;15.10;99.90;16.30;96990.00;;;;5044278;28;20193;-68
2022/05/16 05:48:44;;;;;;;9.67;8.30;;;15.20;99.90;16.40;96982.00;;;;5048441;28;20609;-68
2022/05/16 05:51:34;;;;;;;8.97;8.07;;;15.30;99.90;16.80;96988.00;;;;5048997;28;20196;-68
2022/05/16 05:54:22;;;;;;;11.93;8.87;;;15.50;99.90;17.20;96983.00;;;;5049323;28;20220;-68
2022/05/16 05:57:13;;;;;;;14.50;9.67;;;15.70;99.90;17.30;96978.00;;;;5049208;28;20205;-68
2022/05/16 06:00:05;;;;;;;8.20;6.97;;;15.90;99.90;17.80;96988.00;;;;5046067;28;20216;-68
2022/05/16 06:02:55;;;;;;;11.87;7.77;;;16.10;99.90;17.90;96983.00;;;;5046543;28;20201;-68
2022/05/16 06:05:44;;;;;;;8.63;7.40;;;16.40;99.90;18.10;96983.00;;;;5049146;28;20201;-69
2022/05/16 06:08:33;;;;;;;6.73;6.03;;;16.50;99.90;18.00;96986.00;;;;5050011;28;20213;-68
2022/05/16 06:11:27;;;;;;;8.53;7.73;;;16.80;99.90;17.80;96977.00;;;;5049777;28;20200;-68
2022/05/16 06:14:18;;;;;;;6.87;6.23;;;16.80;99.90;18.10;96988.00;;;;5049683;28;20225;-69
2022/05/16 06:17:07;;;;;;;7.83;7.13;;;17.00;99.90;18.20;96982.00;;;;5048350;28;20215;-68
2022/05/16 06:19:57;;;;;;;10.80;8.33;;;17.10;99.90;18.60;96979.00;;;;5044636;28;20223;-68
2022/05/16 06:22:45;;;;;;;8.80;6.83;;;17.20;99.90;18.90;96985.00;;;;5046841;28;20578;-69
2022/05/16 06:25:34;;;;;;;5.83;5.30;;;17.40;99.90;19.20;96986.00;;;;5048440;28;20702;-69
2022/05/16 06:28:27;;;;;;;8.43;7.20;;;17.60;99.90;19.30;96979.00;;;;5043626;28;20212;-68
2022/05/16 06:31:17;;;;;;;10.43;7.13;;;17.70;99.90;19.00;96983.00;;;;5044472;28;20208;-68
2022/05/16 06:34:06;;;;;;;8.30;6.77;;;17.90;99.90;19.60;96985.00;;;;5046803;28;20236;-68
2022/05/16 06:36:55;;;;;;;9.77;6.93;;;18.00;99.90;19.90;96985.00;;;;5049668;28;20200;-68
2022/05/16 06:39:44;;;;;;;6.93;6.17;;;18.20;99.90;19.50;96975.00;;;;5047891;28;20208;-69
2022/05/16 06:42:33;;;;;;;8.27;7.00;;;18.30;99.90;19.70;96975.00;;;;5048148;28;20583;-69
2022/05/16 06:45:22;;;;;;;7.03;6.17;;;18.40;99.90;20.10;96982.00;;;;5039845;28;20200;-69
2022/05/16 06:48:12;;;;;;;9.07;6.23;;;18.60;99.90;20.30;96979.00;;;;5048519;28;20212;-69
2022/05/16 06:51:01;;;;;;;9.17;6.20;;;18.80;99.90;20.30;96974.00;;;;5044200;28;20688;-68
2022/05/16 06:53:51;;;;;;;11.60;6.43;;;19.00;99.90;20.90;96977.00;;;;5050694;28;20221;-69
2022/05/16 06:56:40;;;;;;;6.70;5.93;;;19.20;99.90;20.40;96975.00;;;;5047650;28;20205;-69
2022/05/16 06:59:28;;;;;;;10.43;6.27;;;19.30;99.90;20.90;96975.00;;;;5048165;28;20204;-69
2022/05/16 07:02:17;;;;;;;15.77;9.03;;;19.50;99.90;21.40;96975.00;;;;5049515;28;20209;-67
2022/05/16 07:05:09;;;;;;;7.50;6.10;;;19.70;99.90;21.00;96963.00;;;;5049911;28;20604;-69
2022/05/16 07:07:58;;;;;;;11.47;6.30;;;19.80;99.90;21.30;96972.00;;;;5046400;28;20211;-69
2022/05/16 07:10:48;;;;;;;9.00;6.23;;;19.90;99.90;21.50;96978.00;;;;5051429;28;20197;-69
2022/05/16 07:13:41;;;;;;;5.97;5.37;;;20.00;99.90;22.00;96971.00;;;;5052328;28;20224;-68
2022/05/16 07:16:30;;;;;;;7.40;5.50;;;20.20;99.90;22.30;96975.00;;;;5053555;28;20203;-69
2022/05/16 07:19:19;;;;;;;6.17;5.37;;;20.50;99.90;22.60;96973.00;;;;5053468;28;20200;-69
2022/05/16 07:22:12;;;;;;;5.80;5.27;;;20.70;99.90;22.90;96973.00;;;;5055193;28;20209;-69
2022/05/16 07:25:01;;;;;;;7.80;5.73;;;21.00;99.90;23.20;96975.00;;;;5053081;28;20225;-68
2022/05/16 07:27:59;;;;;;;8.63;5.80;;;21.20;99.90;23.40;96969.00;;;;5053174;28;20207;-69
2022/05/16 07:30:49;;;;;;;8.40;6.17;;;21.40;99.90;23.60;96967.00;;;;5042611;28;20212;-67
2022/05/16 07:33:38;;;;;;;8.97;6.43;;;21.60;99.90;23.80;96975.00;;;;5049823;28;20244;-68
2022/05/16 07:36:27;;;;;;;6.63;5.77;;;21.80;99.90;23.90;96970.00;;;;5052643;28;20212;-69
2022/05/16 07:39:17;;;;;;;6.50;5.13;;;22.00;99.90;24.00;96971.00;;;;5054089;28;20204;-69
2022/05/16 07:42:09;;;;;;;10.23;5.30;;;22.20;99.90;23.90;96967.00;;;;5042829;28;20205;-69
2022/05/16 07:45:00;;;;;;;5.83;5.23;;;22.30;99.90;24.00;96965.00;;;;5054681;28;20224;-69
2022/05/16 07:47:49;;;;;;;6.13;5.37;;;22.40;99.90;23.70;96975.00;;;;5054780;28;20208;-69
2022/05/16 07:50:41;;;;;;;7.93;5.30;;;22.50;99.90;23.70;96974.00;;;;5053731;28;20204;-69
2022/05/16 07:53:30;;;;;;;9.43;4.90;;;22.40;99.90;24.00;96978.00;;;;5057917;28;20912;-69
2022/05/16 07:56:21;;;;;;;7.70;5.27;;;22.50;99.90;24.30;96971.00;;;;5053740;28;20231;-69
2022/05/16 07:59:10;;;;;;;7.30;5.77;;;22.60;99.90;24.50;96981.00;;;;5053614;28;20216;-69
2022/05/16 08:01:59;;;;;;;5.70;5.03;;;22.70;99.90;24.70;96975.00;;;;5045898;28;20212;-69
2022/05/16 08:04:27;;;;;;;11.80;5.53;;;22.80;99.90;24.60;96981.00;;;;5051847;28;20232;-69
2022/05/16 08:07:15;;;;;;;5.73;5.23;;;23.00;99.90;24.70;96976.00;;;;5045509;28;20604;-69
2022/05/16 08:13:13;;;;;;;7.77;5.03;;;23.10;99.90;25.00;96971.00;;;;5049423;28;20208;-68
2022/05/16 08:16:01;;;;;;;5.70;5.07;;;23.30;99.90;24.20;96969.00;;;;5053412;28;20225;-69
2022/05/16 08:18:50;;;;;;;6.77;4.70;;;23.30;99.90;24.70;96979.00;;;;5051871;28;20200;-69
2022/05/16 08:21:41;;;;;;;6.17;5.60;;;23.40;99.90;25.40;96976.00;;;;5053542;28;20211;-69
2022/05/16 08:24:30;;;;;;;7.33;5.57;;;23.60;99.90;25.90;96972.00;;;;5055978;28;20216;-69
2022/05/16 08:27:19;;;;;;;5.60;5.10;;;23.80;99.90;25.90;96974.00;;;;5051500;28;20307;-69
2022/05/16 08:30:12;;;;;;;7.43;5.00;;;24.10;99.90;26.00;96980.00;;;;5047886;28;20407;-69
2022/05/16 08:33:02;;;;;;;5.57;4.73;;;24.30;99.90;26.10;96980.00;;;;5054523;28;20214;-69
2022/05/16 08:42:08;;;;;;;5.43;4.53;;;24.60;99.90;26.40;96979.00;;;;5036596;28;20202;-69
2022/05/16 08:45:01;;;;;;;7.60;5.33;;;24.70;99.90;26.40;96983.00;;;;5053065;28;20618;-69
2022/05/16 08:47:57;;;;;;;10.57;5.97;;;24.80;99.90;26.90;96976.00;;;;5046302;28;20202;-69
2022/05/16 08:50:53;;;;;;;10.87;5.70;;;24.90;99.90;26.80;96979.00;;;;5050936;28;20213;-69
2022/05/16 08:53:48;;;;;;;8.13;5.50;;;25.10;99.90;26.90;96973.00;;;;5054961;28;20965;-69
2022/05/16 08:56:41;;;;;;;13.57;5.00;;;25.20;99.90;27.20;96983.00;;;;5049576;28;20237;-69
2022/05/16 08:59:33;;;;;;;10.70;5.60;;;25.40;99.90;27.50;96989.00;;;;5049489;28;20195;-69
2022/05/16 09:02:25;;;;;;;7.93;4.93;;;25.60;99.40;27.40;96983.00;;;;5051818;28;20212;-69
2022/05/16 09:05:23;;;;;;;10.00;5.17;;;25.80;96.20;27.30;96987.00;;;;5048423;28;20234;-69
2022/05/16 09:08:18;;;;;;;7.67;5.40;;;25.80;96.50;27.70;96984.00;;;;5048359;28;20211;-69
2022/05/16 09:11:11;;;;;;;10.83;5.63;;;25.90;97.30;28.10;96983.00;;;;5050982;28;20661;-69
2022/05/16 09:14:05;;;;;;;10.77;5.13;;;26.10;97.00;28.40;96979.00;;;;5046873;28;20238;-69
2022/05/16 09:17:01;;;;;;;5.57;4.77;;;26.30;96.80;27.80;96980.00;;;;5044856;28;20779;-69
2022/05/16 09:20:12;;;;;;;5.67;4.87;;;26.40;96.00;27.60;96985.00;;;;5047800;28;20201;-69
2022/05/16 09:23:13;;;;;;;7.20;5.07;;;26.40;93.90;27.60;96978.00;;;;5044862;28;20669;-69
2022/05/16 09:26:11;;;;;;;5.20;4.70;;;26.40;92.80;28.10;96978.00;;;;5046058;28;20205;-69
2022/05/16 09:29:16;;;;;;;9.07;5.07;;;26.40;92.70;28.50;96982.00;;;;5048807;28;20209;-69
2022/05/16 09:32:13;;;;;;;5.00;4.53;;;26.60;93.80;27.10;96968.00;;;;5047822;28;20212;-69
2022/05/16 09:35:04;;;;;;;6.53;5.40;;;26.60;91.70;28.00;96969.00;;;;5048247;28;20237;-69
2022/05/16 09:37:58;;;;;;;6.37;5.30;;;26.60;92.40;28.50;96977.00;;;;5044721;28;20206;-69
2022/05/16 09:41:10;;;;;;;12.23;5.40;;;26.70;92.90;28.70;96972.00;;;;5042646;28;20202;-69
2022/05/16 09:44:09;;;;;;;5.80;4.60;;;26.90;93.30;28.40;96975.00;;;;5051916;28;20237;-68
2022/05/16 09:47:23;;;;;;;6.03;5.00;;;27.00;90.60;28.70;96976.00;;;;5049798;28;20205;-68
2022/05/16 09:50:20;;;;;;;5.83;5.07;;;27.40;91.30;28.90;96979.00;;;;5050899;28;20203;-68
2022/05/16 09:53:15;;;;;;;8.17;4.93;;;27.20;91.30;29.10;96965.00;;;;5053656;28;20207;-68
2022/05/16 09:56:09;;;;;;;7.33;4.07;;;27.30;90.90;29.00;96959.00;;;;5050669;28;20226;-68
2022/05/16 09:59:00;;;;;;;4.93;4.43;;;27.40;87.90;29.70;96953.00;;;;5045437;28;20698;-68
2022/05/16 10:01:53;;;;;;;11.20;4.37;;;27.60;88.90;29.60;96962.00;;;;5045123;28;20606;-68
2022/05/16 10:04:56;;;;;;;7.00;4.90;;;27.70;85.50;29.40;96953.00;;;;5082447;22;21051;-66
2022/05/16 10:07:49;;;;;;;5.60;5.03;;;27.80;84.80;29.40;96953.00;;;;5026922;28;20212;-66
2022/05/16 10:10:42;;;;;;;5.47;4.43;;;27.80;87.30;29.10;96957.00;;;;5029521;28;20212;-65
2022/05/16 10:13:33;;;;;;;6.53;4.40;;;27.80;85.00;29.50;96953.00;;;;5028831;28;20237;-66
2022/05/16 10:16:23;;;;;;;5.90;4.57;;;27.80;84.90;29.10;96943.00;;;;5029816;28;20222;-66
2022/05/16 10:19:19;;;;;;;6.10;5.40;;;27.90;84.80;29.60;96944.00;;;;5029665;28;20204;-66
2022/05/16 10:22:13;;;;;;;5.20;4.30;;;28.00;84.70;30.00;96953.00;;;;5026847;28;20289;-65
2022/05/16 10:25:05;;;;;;;6.83;5.27;;;28.10;84.50;29.90;96936.00;;;;5030081;28;20239;-66
2022/05/16 10:27:55;;;;;;;5.50;4.87;;;28.20;83.30;30.60;96933.00;;;;5029836;28;20228;-65
2022/05/16 10:34:02;;;;;;;6.13;4.60;;;28.60;83.30;31.00;96932.00;;;;5017337;28;20229;-65
2022/05/16 10:36:56;;;;;;;5.83;4.93;;;28.80;82.00;31.20;96929.00;;;;5029759;28;20268;-65
2022/05/16 10:39:49;;;;;;;7.63;4.77;;;29.10;81.00;30.70;96919.00;;;;5030295;28;20207;-66
2022/05/16 10:42:46;;;;;;;5.07;4.53;;;29.30;77.90;30.30;96915.00;;;;5029488;28;20207;-66
2022/05/16 10:45:37;;;;;;;7.63;5.47;;;29.30;79.20;31.10;96924.00;;;;5029518;28;20224;-66
2022/05/16 10:48:41;;;;;;;7.60;4.93;;;29.30;76.70;30.20;96903.00;;;;5028910;28;20211;-66
2022/05/16 10:51:41;;;;;;;6.17;4.43;;;29.20;74.70;30.90;96901.00;;;;5027449;28;20216;-65
2022/05/16 10:54:31;;;;;;;6.80;4.90;;;29.10;74.90;31.60;96899.00;;;;5034645;28;20225;-66
2022/05/16 10:57:58;;;;;;;6.53;4.13;;;29.40;76.50;30.80;96899.00;;;;5028393;28;20231;-66
2022/05/16 11:00:54;;;;;;;8.27;5.00;;;29.50;71.70;32.40;96896.00;;;;5024851;28;20210;-66
2022/05/16 11:04:34;;;;;;;5.70;4.87;;;29.70;75.00;31.20;96899.00;;;;5023942;28;20236;-65
2022/05/16 11:07:33;;;;;;;8.37;5.80;;;29.90;71.50;29.90;96874.00;;;;5022711;28;20217;-64
2022/05/16 11:10:29;;;;;;;4.78;4.00;;;29.70;72.40;30.40;96879.00;;;;5026495;28;20203;-63
2022/05/16 11:13:28;;;;;;;5.07;4.68;;;29.40;73.60;31.10;96886.00;;;;5026242;28;20219;-63
2022/05/16 11:16:23;;;;;;;8.63;5.10;;;29.50;83.00;31.80;96900.00;;;;5020202;28;20229;-65
2022/05/16 11:19:25;;;;;;;4.65;4.25;;;29.70;84.50;32.70;96894.00;;;;5029660;28;20215;-65
2022/05/16 11:22:21;;;;;;;4.28;3.88;;;30.10;69.60;33.00;96892.00;;;;5029075;28;20598;-66
2022/05/16 11:25:16;;;;;;;6.25;4.47;;;30.50;68.70;29.90;96886.00;;;;5030148;28;20474;-65
2022/05/16 11:28:13;;;;;;;4.03;3.47;;;30.20;65.00;30.90;96876.00;;;;5028903;28;20214;-65
2022/05/16 11:31:08;;;;;;;4.88;4.18;;;30.10;67.40;31.80;96873.00;;;;5029961;28;20218;-64
2022/05/16 11:33:57;;;;;;;5.22;4.28;;;30.10;66.40;32.40;96871.00;;;;5017330;28;20730;-65
2022/05/16 11:36:54;;;;;;;4.43;3.35;;;30.30;67.20;33.20;96872.00;;;;5028689;28;20229;-65
2022/05/16 11:39:52;;;;;;;4.95;3.72;;;30.60;66.10;34.00;96866.00;;;;5029583;28;20212;-64
2022/05/16 11:42:50;;;;;;;5.57;4.30;;;31.00;66.50;33.50;96868.00;;;;5029210;28;20204;-65
2022/05/16 11:46:11;;;;;;;5.43;4.20;;;31.40;63.00;34.20;96863.00;;;;5029146;28;20236;-67
2022/05/16 11:49:21;;;;;;;7.32;4.47;;;31.70;63.20;33.60;96852.00;;;;5027866;28;20212;-66
2022/05/16 11:52:41;;;;;;;5.78;3.95;;;31.90;63.10;34.30;96859.00;;;;5028312;28;20798;-66
2022/05/16 12:02:11;;;;;;;4.32;3.92;;;32.40;57.90;33.90;96853.00;;;;5026464;28;20205;-65
2022/05/16 12:05:10;;;;;;;4.28;3.88;;;32.20;59.40;32.50;96855.00;;;;5032468;28;20233;-65
2022/05/16 12:08:34;;;;;;;5.60;4.43;;;31.80;57.70;34.50;96857.00;;;;5031932;28;20236;-65
2022/05/16 12:11:28;;;;;;;4.18;3.78;;;32.00;60.80;35.00;96871.00;;;;5020815;28;20732;-65
2022/05/16 12:14:27;;;;;;;6.43;4.50;;;32.30;61.00;35.30;96883.00;;;;5027846;28;20229;-69
2022/05/16 12:17:26;;;;;;;4.18;3.78;;;32.50;60.10;34.90;96909.00;;;;5028391;28;20699;-68
2022/05/16 12:20:16;;;;;;;3.63;3.33;;;32.70;59.00;34.90;96881.00;;;;5031511;28;20197;-68
2022/05/16 12:23:09;;;;;;;3.75;3.40;;;32.50;59.00;35.20;96871.00;;;;5027027;28;20693;-68
2022/05/16 12:26:00;;;;;;;4.95;4.10;;;32.70;59.60;35.50;96871.00;;;;5026836;28;20225;-68
2022/05/16 12:29:15;;;;;;;5.60;4.45;;;32.90;60.30;33.20;96888.00;;;;5029342;28;20201;-66
2022/05/16 12:32:05;;;;;;;5.03;4.53;;;32.50;58.90;30.90;96912.00;;;;5029855;28;20601;-66
2022/05/16 12:34:53;;;;;;;7.15;4.80;;;31.40;58.90;30.20;96922.00;;;;5030145;28;20275;-66
2022/05/16 12:37:42;;;;;;;4.90;3.85;;;30.60;60.50;29.10;96917.00;;;;5031262;28;20699;-67
2022/05/16 12:40:58;;;;;;;5.68;4.30;;;29.60;62.60;29.30;96919.00;;;;5025327;28;20553;-66
2022/05/16 12:44:12;;;;;;;5.63;4.32;;;28.90;64.50;28.40;96925.00;;;;5024095;28;20229;-65
2022/05/16 12:47:48;;;;;;;4.63;4.13;;;28.30;65.70;26.70;96925.00;;;;5021933;28;20233;-66
2022/05/16 12:51:37;;;;;;;6.23;4.10;;;27.30;69.60;25.60;96927.00;;;;5030890;28;20699;-63
2022/05/16 12:55:20;;;;;;;5.27;4.60;;;25.90;73.10;25.10;96919.00;;;;5002758;28;20231;-63
2022/05/16 12:58:18;;;;;;;4.73;4.13;;;25.30;76.90;25.40;96916.00;;;;5023141;28;20225;-66
2022/05/16 13:01:22;;;;;;;6.03;4.37;;;24.90;77.50;25.50;96909.00;;;;5027762;28;20202;-66
2022/05/16 13:04:25;;;;;;;4.93;4.20;;;24.70;80.20;26.10;96930.00;;;;5026240;28;20600;-66
2022/05/16 13:07:23;;;;;;;6.97;4.53;;;24.80;82.10;25.60;96929.00;;;;5021583;28;20470;-72
2022/05/16 13:10:30;;;;;;;5.53;5.00;;;24.80;84.20;25.50;96923.00;;;;5026094;28;20206;-67
2022/05/16 13:13:40;;;;;;;5.60;4.37;;;24.70;84.00;25.40;96913.00;;;;5028411;28;20209;-65
2022/05/16 13:16:32;;;;;;;7.97;4.37;;;24.70;85.90;25.50;96906.00;;;;5021822;28;20212;-63
2022/05/16 13:19:23;;;;;;;8.73;5.47;;;24.70;88.40;25.30;96910.00;;;;5028999;28;20197;-66